Hlavní strana
METAR-TAF:

METAR-TAF

Letiště :

Las Vegas, Nevada, Spojené státy americké

zeměpisná šířka: 36-04-44N, zeměpisná délka: 115-09-19W, výška: 663 m

Aktuální stav počasí

Zpráva byla vytvořena před 37 minutami, v 12:56 UTC
Bezvětří
Teplota 21°C
Vlhkost vzduchu 21%
Tlak 1013 hPa
Viditelnost: 16.1 km
Jasno

METAR: KLAS 231256Z 00000KT 10SM CLR 21/M02 A2991 RMK AO2 SLP106 T02111017

Čas: 06:33 (13:33 UTC)

Předpověď počasí

Zpráva byla vytvořena před 2 hodinami a 3 minutami, v 11:30 UTC
Předpověď platná od 23 v 12 UTC do 24 v 18 UTC
Jihojihozápadní vítr 7 kt
Viditelnost: 10 km
Jasno
Od 23 v 1500 UTC
vítr z různých směrů 5 kt
Viditelnost: 10 km
Skoro jasno ve výšce 25000 ft
Od 23 v 2100 UTC
Jihojihozápadní vítr 11 kt s nárazy do 17 kt
Viditelnost: 10 km
Polojasno ve výšce 25000 ft
Od 24 v 0300 UTC
Západojihozápadní vítr 8 kt
Viditelnost: 10 km
Polojasno ve výšce 25000 ft

TAF: KLAS 231130Z 2312/2418 20007KT P6SM SKC FM231500 VRB05KT P6SM FEW250 FM232100 20011G17KT P6SM SCT250 FM240300 24008KT P6SM SCT250

Stav a předpovědi počasí z více než 4 000 letišť (zprávy METAR a TAF).

Červené a žluté tečky na mapě představují dostupné meteorologické stanice.

Když kurzor umístíte na tečku, zobrazí se název stanice.

Pak kliknutím zobrazíte stav a předpověď počasí.

Chcete-li změnit mapu, kliknutím na zelené tlačítko se znaménkem +mapu přiblížíte, kliknutím na zelené tlačítko se znaménkem – mapu oddálíte a kliknutím na zelené šipky přejdete na sousední mapy.


METAR-TAF: